createdAt,value
2018-02-08T00:01:18.863Z,30.20
2018-02-08T00:06:21.694Z,26.10
2018-02-08T00:11:25.207Z,27.87
2018-02-08T00:16:28.739Z,28.43
2018-02-08T00:21:32.495Z,29.57
2018-02-08T00:26:35.269Z,26.30
2018-02-08T00:31:38.295Z,25.87
2018-02-08T00:36:41.301Z,26.80
2018-02-08T00:41:44.879Z,26.67
2018-02-08T00:46:47.832Z,25.53
2018-02-08T00:51:50.749Z,28.27
2018-02-08T00:56:54.447Z,27.83
2018-02-08T01:01:57.984Z,25.40
2018-02-08T01:07:00.701Z,27.77
2018-02-08T01:12:03.554Z,28.83
2018-02-08T01:17:07.898Z,28.00
2018-02-08T01:22:10.608Z,24.00
2018-02-08T01:27:13.345Z,25.40
2018-02-08T01:32:15.999Z,25.97
2018-02-08T01:37:18.779Z,29.93
2018-02-08T01:42:22.249Z,25.90
2018-02-08T01:47:24.952Z,28.93
2018-02-08T01:52:27.717Z,24.40
2018-02-08T01:57:30.392Z,27.50
2018-02-08T02:02:34.611Z,27.47
2018-02-08T02:07:37.614Z,26.50
2018-02-08T02:12:40.646Z,31.27
2018-02-08T02:17:43.299Z,25.60
2018-02-08T02:22:46.461Z,30.23
2018-02-08T02:27:49.191Z,25.40
2018-02-08T02:32:52.626Z,25.83
2018-02-08T02:37:55.372Z,27.20
2018-02-08T02:42:58.182Z,29.20
2018-02-08T02:48:00.881Z,26.30
2018-02-08T02:53:04.086Z,26.47
2018-02-08T02:58:07.537Z,24.57
2018-02-08T03:03:10.322Z,24.90
2018-02-08T03:08:13.446Z,25.97
2018-02-08T03:13:16.146Z,29.00
2018-02-08T03:18:18.920Z,25.90
2018-02-08T03:23:21.568Z,26.80
2018-02-08T03:28:25.356Z,26.70
2018-02-08T03:33:28.885Z,24.53
2018-02-08T03:38:31.614Z,27.87
2018-02-08T03:43:34.452Z,26.47
2018-02-08T03:48:37.997Z,29.07
2018-02-08T03:53:41.292Z,25.80
2018-02-08T03:58:44.067Z,27.27
2018-02-08T04:03:46.978Z,30.53
2018-02-08T04:08:49.723Z,28.20
2018-02-08T04:13:52.689Z,25.83
2018-02-08T04:18:55.401Z,29.60
2018-02-08T04:23:58.035Z,30.47
2018-02-08T04:29:00.691Z,26.07
2018-02-08T04:34:03.959Z,26.97
2018-02-08T04:39:18.611Z,30.27
2018-02-08T04:44:33.304Z,27.37
2018-02-08T04:49:36.830Z,29.60
2018-02-08T04:54:39.687Z,30.23
2018-02-08T04:59:42.433Z,29.43
2018-02-08T05:04:45.182Z,29.90
2018-02-08T05:09:47.941Z,27.10
2018-02-08T05:14:50.723Z,27.27
2018-02-08T05:19:53.457Z,30.97
2018-02-08T05:24:57.231Z,31.10
2018-02-08T05:30:00.865Z,30.57
2018-02-08T05:35:03.853Z,29.70
2018-02-08T05:40:06.580Z,31.03
2018-02-08T05:45:09.455Z,31.30
2018-02-08T05:50:12.942Z,29.57
2018-02-08T05:55:17.431Z,28.83
2018-02-08T06:05:37.693Z,36.63
2018-02-08T06:22:29.805Z,28.17
2018-02-08T06:27:40.830Z,29.30
2018-02-08T07:07:55.260Z,44.33
2018-02-08T07:13:32.958Z,32.93
2018-02-08T07:31:20.217Z,32.23
2018-02-08T09:48:59.362Z,43.23
2018-02-08T10:15:12.689Z,30.70
2018-02-08T10:51:22.979Z,30.53
2018-02-08T10:56:46.259Z,31.60
2018-02-08T11:08:22.111Z,32.77
2018-02-08T11:19:02.523Z,32.83
2018-02-08T12:14:52.623Z,30.93
2018-02-08T12:20:23.052Z,28.50
2018-02-08T12:25:55.052Z,31.93
2018-02-08T12:30:59.693Z,29.87
2018-02-08T12:36:06.948Z,33.47
2018-02-08T12:41:12.839Z,27.50
2018-02-08T12:46:16.442Z,25.37
2018-02-08T12:51:20.164Z,22.23
2018-02-08T12:56:27.866Z,24.50
2018-02-08T13:01:32.060Z,21.70
2018-02-08T13:06:35.078Z,20.80
2018-02-08T13:11:38.098Z,22.70
2018-02-08T13:16:45.214Z,22.53
2018-02-08T13:21:50.570Z,21.00
2018-02-08T13:26:54.836Z,23.30
2018-02-08T13:32:00.275Z,24.53
2018-02-08T13:37:03.669Z,21.27
2018-02-08T13:42:27.462Z,27.33
2018-02-08T13:53:19.468Z,34.83
2018-02-08T14:05:06.255Z,22.37
2018-02-08T14:43:51.497Z,23.50
2018-02-08T15:56:58.742Z,32.37
2018-02-08T16:02:05.032Z,23.50
2018-02-08T16:07:08.309Z,22.83
2018-02-08T16:12:11.859Z,21.87
2018-02-08T16:17:15.517Z,21.70
2018-02-08T16:22:20.146Z,24.90
2018-02-08T16:27:23.141Z,23.00
2018-02-08T16:32:26.957Z,21.47
2018-02-08T16:37:30.394Z,25.50
2018-02-08T16:42:33.459Z,22.37
2018-02-08T16:47:40.253Z,22.03
2018-02-08T16:52:43.521Z,22.27
2018-02-08T16:57:47.309Z,20.07
2018-02-08T17:02:52.685Z,22.73
2018-02-08T17:07:55.537Z,23.43
2018-02-08T17:13:13.447Z,21.07
2018-02-08T17:18:16.654Z,22.80
2018-02-08T17:23:19.863Z,24.03
2018-02-08T17:33:20.683Z,24.73
2018-02-08T17:38:30.515Z,25.53
2018-02-08T17:43:36.838Z,23.83
2018-02-08T17:48:39.982Z,22.30
2018-02-08T17:53:44.122Z,27.30
2018-02-08T17:58:47.182Z,25.10
2018-02-08T18:03:52.675Z,23.63
2018-02-08T18:08:55.753Z,22.27
2018-02-08T18:13:59.703Z,22.30
2018-02-08T18:19:02.779Z,23.03
2018-02-08T18:24:06.870Z,22.53
2018-02-08T18:29:09.685Z,24.40
2018-02-08T18:34:17.248Z,21.97
2018-02-08T18:39:22.589Z,24.37
2018-02-08T18:44:26.641Z,21.80
2018-02-08T18:49:34.189Z,19.40
2018-02-08T18:54:54.658Z,21.50
2018-02-08T19:00:01.013Z,22.07
2018-02-08T19:05:07.057Z,25.00
2018-02-08T19:10:13.329Z,24.87
2018-02-08T19:15:17.445Z,21.30
2018-02-08T19:20:22.177Z,23.43
2018-02-08T19:25:27.069Z,25.00
2018-02-08T19:30:36.955Z,23.47
2018-02-08T19:35:44.034Z,27.07
2018-02-08T19:40:48.055Z,24.27
2018-02-08T19:45:56.075Z,23.87
2018-02-08T19:56:28.313Z,23.23
2018-02-08T20:01:40.003Z,20.80
2018-02-08T20:06:49.084Z,22.93
2018-02-08T20:11:54.047Z,24.40
2018-02-08T20:17:05.588Z,24.47
2018-02-08T20:22:16.749Z,25.33
2018-02-08T20:32:43.037Z,22.77
2018-02-08T20:37:47.318Z,22.23
2018-02-08T20:48:20.572Z,20.93
2018-02-08T20:53:26.371Z,22.60
2018-02-08T20:58:29.965Z,22.40
2018-02-08T21:03:34.441Z,19.53
2018-02-08T21:08:40.403Z,22.27
2018-02-08T21:13:45.305Z,20.60
2018-02-08T21:18:48.304Z,21.93
2018-02-08T21:23:52.832Z,25.03
2018-02-08T21:28:56.977Z,23.90
2018-02-08T21:34:09.963Z,23.83
2018-02-08T21:39:14.689Z,22.17
2018-02-08T21:44:28.831Z,22.30
2018-02-08T21:49:34.898Z,20.97
2018-02-08T21:54:43.534Z,21.97
2018-02-08T21:59:54.242Z,23.00
2018-02-08T22:05:03.637Z,22.20
2018-02-08T22:10:11.150Z,20.77
2018-02-08T22:21:07.642Z,32.00
2018-02-08T22:26:17.625Z,23.67
2018-02-08T22:31:31.203Z,23.20
2018-02-08T22:36:43.211Z,24.77
2018-02-08T22:41:57.714Z,22.40
2018-02-08T22:47:07.164Z,22.87
2018-02-08T22:52:17.782Z,21.50
2018-02-08T22:57:25.229Z,22.13
2018-02-08T23:02:30.879Z,23.27
2018-02-08T23:07:49.730Z,22.20
2018-02-08T23:12:54.083Z,21.67
2018-02-08T23:23:21.328Z,21.57
2018-02-08T23:28:33.905Z,21.47
2018-02-08T23:33:38.791Z,21.67
2018-02-08T23:38:52.085Z,21.67
2018-02-08T23:44:16.522Z,21.40
2018-02-08T23:49:25.832Z,25.53
2018-02-08T23:54:42.710Z,21.17
2018-02-08T23:59:50.355Z,22.77
